sensor_id;sensor_type;location;lat;lon;timestamp;P1;durP1;ratioP1;P2;durP2;ratioP2
40649;SDS011;26342;42.826;23.992;2022-10-16T00:01:45;1.85;;;1.63;;
40649;SDS011;26342;42.826;23.992;2022-10-16T00:04:11;5.07;;;1.35;;
40649;SDS011;26342;42.826;23.992;2022-10-16T00:06:37;2.85;;;0.90;;
40649;SDS011;26342;42.826;23.992;2022-10-16T00:09:03;2.03;;;0.70;;
40649;SDS011;26342;42.826;23.992;2022-10-16T00:11:30;2.88;;;1.75;;
40649;SDS011;26342;42.826;23.992;2022-10-16T00:14:05;2.15;;;1.30;;
40649;SDS011;26342;42.826;23.992;2022-10-16T00:16:36;1.95;;;0.68;;
40649;SDS011;26342;42.826;23.992;2022-10-16T00:19:02;0.50;;;0.47;;
40649;SDS011;26342;42.826;23.992;2022-10-16T00:21:28;0.65;;;0.47;;
40649;SDS011;26342;42.826;23.992;2022-10-16T00:24:05;1.45;;;0.98;;
40649;SDS011;26342;42.826;23.992;2022-10-16T00:26:33;0.40;;;0.40;;
40649;SDS011;26342;42.826;23.992;2022-10-16T00:28:59;0.57;;;0.57;;
40649;SDS011;26342;42.826;23.992;2022-10-16T00:31:25;2.15;;;0.95;;
40649;SDS011;26342;42.826;23.992;2022-10-16T00:33:51;0.20;;;0.20;;
40649;SDS011;26342;42.826;23.992;2022-10-16T00:36:18;4.65;;;1.33;;
40649;SDS011;26342;42.826;23.992;2022-10-16T00:38:45;0.50;;;0.50;;
40649;SDS011;26342;42.826;23.992;2022-10-16T00:41:14;4.15;;;1.50;;
40649;SDS011;26342;42.826;23.992;2022-10-16T00:46:23;2.90;;;1.00;;
40649;SDS011;26342;42.826;23.992;2022-10-16T00:49:05;0.80;;;0.80;;
40649;SDS011;26342;42.826;23.992;2022-10-16T00:51:34;2.38;;;0.98;;
40649;SDS011;26342;42.826;23.992;2022-10-16T00:54:00;0.65;;;0.60;;
40649;SDS011;26342;42.826;23.992;2022-10-16T00:56:28;0.88;;;0.55;;
40649;SDS011;26342;42.826;23.992;2022-10-16T00:58:54;2.47;;;1.05;;
40649;SDS011;26342;42.826;23.992;2022-10-16T01:01:19;2.22;;;1.55;;
40649;SDS011;26342;42.826;23.992;2022-10-16T01:03:45;0.88;;;0.75;;
40649;SDS011;26342;42.826;23.992;2022-10-16T01:11:34;1.98;;;1.45;;
40649;SDS011;26342;42.826;23.992;2022-10-16T01:14:06;4.82;;;1.20;;
40649;SDS011;26342;42.826;23.992;2022-10-16T01:16:42;2.78;;;1.38;;
40649;SDS011;26342;42.826;23.992;2022-10-16T01:19:18;1.70;;;0.50;;
40649;SDS011;26342;42.826;23.992;2022-10-16T01:21:51;2.05;;;1.30;;
40649;SDS011;26342;42.826;23.992;2022-10-16T01:32:39;1.13;;;0.60;;
40649;SDS011;26342;42.826;23.992;2022-10-16T01:35:26;1.73;;;1.15;;
40649;SDS011;26342;42.826;23.992;2022-10-16T01:38:01;1.15;;;0.60;;
40649;SDS011;26342;42.826;23.992;2022-10-16T01:40:32;1.98;;;1.45;;
40649;SDS011;26342;42.826;23.992;2022-10-16T01:43:12;1.67;;;0.90;;
40649;SDS011;26342;42.826;23.992;2022-10-16T01:45:44;1.33;;;0.82;;
40649;SDS011;26342;42.826;23.992;2022-10-16T01:48:14;1.10;;;0.77;;
40649;SDS011;26342;42.826;23.992;2022-10-16T01:50:43;1.60;;;1.10;;
40649;SDS011;26342;42.826;23.992;2022-10-16T01:53:13;1.38;;;0.77;;
40649;SDS011;26342;42.826;23.992;2022-10-16T01:55:41;2.22;;;1.30;;
40649;SDS011;26342;42.826;23.992;2022-10-16T01:58:11;2.15;;;1.25;;
40649;SDS011;26342;42.826;23.992;2022-10-16T02:00:38;1.40;;;1.15;;
40649;SDS011;26342;42.826;23.992;2022-10-16T02:03:07;0.57;;;0.45;;
40649;SDS011;26342;42.826;23.992;2022-10-16T02:05:37;1.02;;;0.70;;
40649;SDS011;26342;42.826;23.992;2022-10-16T02:08:09;0.82;;;0.68;;
40649;SDS011;26342;42.826;23.992;2022-10-16T02:10:35;0.20;;;0.20;;
40649;SDS011;26342;42.826;23.992;2022-10-16T02:15:52;1.55;;;0.50;;
40649;SDS011;26342;42.826;23.992;2022-10-16T02:18:18;0.98;;;0.90;;
40649;SDS011;26342;42.826;23.992;2022-10-16T02:20:55;8.95;;;1.05;;
40649;SDS011;26342;42.826;23.992;2022-10-16T02:23:29;5.93;;;2.88;;
40649;SDS011;26342;42.826;23.992;2022-10-16T02:26:01;3.67;;;3.30;;
40649;SDS011;26342;42.826;23.992;2022-10-16T02:28:33;7.63;;;3.42;;
40649;SDS011;26342;42.826;23.992;2022-10-16T02:31:25;9.02;;;4.50;;
40649;SDS011;26342;42.826;23.992;2022-10-16T02:33:54;7.68;;;2.50;;
40649;SDS011;26342;42.826;23.992;2022-10-16T02:36:23;2.65;;;1.20;;
40649;SDS011;26342;42.826;23.992;2022-10-16T02:38:50;1.27;;;0.52;;
40649;SDS011;26342;42.826;23.992;2022-10-16T02:41:17;0.70;;;0.60;;
40649;SDS011;26342;42.826;23.992;2022-10-16T02:43:45;1.38;;;0.93;;
40649;SDS011;26342;42.826;23.992;2022-10-16T02:46:10;1.83;;;1.23;;
40649;SDS011;26342;42.826;23.992;2022-10-16T02:48:36;2.30;;;1.08;;
40649;SDS011;26342;42.826;23.992;2022-10-16T02:51:01;0.60;;;0.45;;
40649;SDS011;26342;42.826;23.992;2022-10-16T02:53:27;1.38;;;1.15;;
40649;SDS011;26342;42.826;23.992;2022-10-16T02:55:52;16.23;;;1.55;;
40649;SDS011;26342;42.826;23.992;2022-10-16T02:58:17;0.52;;;0.52;;
40649;SDS011;26342;42.826;23.992;2022-10-16T03:00:43;2.38;;;1.10;;
40649;SDS011;26342;42.826;23.992;2022-10-16T03:03:08;0.55;;;0.55;;
40649;SDS011;26342;42.826;23.992;2022-10-16T03:05:34;4.80;;;2.00;;
40649;SDS011;26342;42.826;23.992;2022-10-16T03:07:59;1.33;;;1.25;;
40649;SDS011;26342;42.826;23.992;2022-10-16T03:10:25;2.97;;;1.45;;
40649;SDS011;26342;42.826;23.992;2022-10-16T03:12:51;0.88;;;0.70;;
40649;SDS011;26342;42.826;23.992;2022-10-16T03:15:17;0.55;;;0.55;;
40649;SDS011;26342;42.826;23.992;2022-10-16T03:17:42;1.35;;;1.02;;
40649;SDS011;26342;42.826;23.992;2022-10-16T03:20:08;2.25;;;0.75;;
40649;SDS011;26342;42.826;23.992;2022-10-16T03:22:34;3.65;;;1.75;;
40649;SDS011;26342;42.826;23.992;2022-10-16T03:24:59;2.63;;;1.98;;
40649;SDS011;26342;42.826;23.992;2022-10-16T03:27:25;0.85;;;0.85;;
40649;SDS011;26342;42.826;23.992;2022-10-16T03:29:50;0.55;;;0.55;;
40649;SDS011;26342;42.826;23.992;2022-10-16T03:32:15;2.22;;;1.20;;
40649;SDS011;26342;42.826;23.992;2022-10-16T03:34:41;0.68;;;0.68;;
40649;SDS011;26342;42.826;23.992;2022-10-16T03:37:06;2.22;;;1.00;;
40649;SDS011;26342;42.826;23.992;2022-10-16T03:39:32;0.70;;;0.68;;
40649;SDS011;26342;42.826;23.992;2022-10-16T03:41:57;0.75;;;0.50;;
40649;SDS011;26342;42.826;23.992;2022-10-16T03:44:22;1.85;;;0.98;;
40649;SDS011;26342;42.826;23.992;2022-10-16T03:46:48;3.50;;;1.30;;
40649;SDS011;26342;42.826;23.992;2022-10-16T03:49:13;5.78;;;0.90;;
40649;SDS011;26342;42.826;23.992;2022-10-16T03:51:38;0.22;;;0.22;;
40649;SDS011;26342;42.826;23.992;2022-10-16T03:54:04;0.77;;;0.77;;
40649;SDS011;26342;42.826;23.992;2022-10-16T03:56:29;1.00;;;0.90;;
40649;SDS011;26342;42.826;23.992;2022-10-16T03:58:55;1.98;;;1.27;;
40649;SDS011;26342;42.826;23.992;2022-10-16T04:01:20;1.20;;;1.10;;
40649;SDS011;26342;42.826;23.992;2022-10-16T04:03:45;1.40;;;0.88;;
40649;SDS011;26342;42.826;23.992;2022-10-16T04:06:11;0.75;;;0.75;;
40649;SDS011;26342;42.826;23.992;2022-10-16T04:08:36;2.83;;;1.65;;
40649;SDS011;26342;42.826;23.992;2022-10-16T04:11:02;4.30;;;3.20;;
40649;SDS011;26342;42.826;23.992;2022-10-16T04:13:28;3.97;;;2.88;;
40649;SDS011;26342;42.826;23.992;2022-10-16T04:15:54;1.70;;;1.45;;
40649;SDS011;26342;42.826;23.992;2022-10-16T04:18:19;2.45;;;1.30;;
40649;SDS011;26342;42.826;23.992;2022-10-16T04:20:45;1.88;;;1.23;;
40649;SDS011;26342;42.826;23.992;2022-10-16T04:23:10;2.88;;;1.65;;
40649;SDS011;26342;42.826;23.992;2022-10-16T04:25:36;2.97;;;2.25;;
40649;SDS011;26342;42.826;23.992;2022-10-16T04:28:01;4.82;;;2.53;;
40649;SDS011;26342;42.826;23.992;2022-10-16T04:30:27;3.90;;;2.15;;
40649;SDS011;26342;42.826;23.992;2022-10-16T04:32:52;1.77;;;1.10;;
40649;SDS011;26342;42.826;23.992;2022-10-16T04:35:18;1.58;;;1.35;;
40649;SDS011;26342;42.826;23.992;2022-10-16T04:37:45;3.65;;;2.58;;
40649;SDS011;26342;42.826;23.992;2022-10-16T04:40:11;1.35;;;1.23;;
40649;SDS011;26342;42.826;23.992;2022-10-16T04:42:37;3.58;;;3.08;;
40649;SDS011;26342;42.826;23.992;2022-10-16T04:45:03;3.00;;;1.42;;
40649;SDS011;26342;42.826;23.992;2022-10-16T04:47:30;4.82;;;3.08;;
40649;SDS011;26342;42.826;23.992;2022-10-16T04:49:55;4.32;;;1.65;;
40649;SDS011;26342;42.826;23.992;2022-10-16T04:52:21;3.17;;;1.75;;
40649;SDS011;26342;42.826;23.992;2022-10-16T04:54:49;2.03;;;1.58;;
40649;SDS011;26342;42.826;23.992;2022-10-16T04:57:15;2.38;;;2.17;;
40649;SDS011;26342;42.826;23.992;2022-10-16T04:59:40;4.88;;;2.78;;
40649;SDS011;26342;42.826;23.992;2022-10-16T05:02:06;7.22;;;2.47;;
40649;SDS011;26342;42.826;23.992;2022-10-16T05:04:31;4.88;;;2.50;;
40649;SDS011;26342;42.826;23.992;2022-10-16T05:06:57;5.75;;;3.10;;
40649;SDS011;26342;42.826;23.992;2022-10-16T05:09:22;1.95;;;1.85;;
40649;SDS011;26342;42.826;23.992;2022-10-16T05:11:47;3.88;;;2.92;;
40649;SDS011;26342;42.826;23.992;2022-10-16T05:14:13;5.18;;;2.40;;
40649;SDS011;26342;42.826;23.992;2022-10-16T05:16:38;5.65;;;3.03;;
40649;SDS011;26342;42.826;23.992;2022-10-16T05:19:04;3.10;;;2.17;;
40649;SDS011;26342;42.826;23.992;2022-10-16T05:21:29;3.33;;;1.60;;
40649;SDS011;26342;42.826;23.992;2022-10-16T05:23:54;3.80;;;2.92;;
40649;SDS011;26342;42.826;23.992;2022-10-16T05:26:20;12.23;;;2.40;;
40649;SDS011;26342;42.826;23.992;2022-10-16T05:28:46;1.60;;;1.50;;
40649;SDS011;26342;42.826;23.992;2022-10-16T05:31:11;5.93;;;1.88;;
40649;SDS011;26342;42.826;23.992;2022-10-16T05:33:37;2.30;;;1.85;;
40649;SDS011;26342;42.826;23.992;2022-10-16T05:36:07;3.00;;;2.22;;
40649;SDS011;26342;42.826;23.992;2022-10-16T05:38:34;3.53;;;2.80;;
40649;SDS011;26342;42.826;23.992;2022-10-16T05:41:00;4.60;;;3.20;;
40649;SDS011;26342;42.826;23.992;2022-10-16T05:43:29;10.88;;;3.67;;
40649;SDS011;26342;42.826;23.992;2022-10-16T05:46:00;6.00;;;3.10;;
40649;SDS011;26342;42.826;23.992;2022-10-16T05:48:27;4.68;;;2.42;;
40649;SDS011;26342;42.826;23.992;2022-10-16T05:51:03;4.13;;;3.72;;
40649;SDS011;26342;42.826;23.992;2022-10-16T05:53:30;2.50;;;2.20;;
40649;SDS011;26342;42.826;23.992;2022-10-16T05:55:57;3.28;;;2.85;;
40649;SDS011;26342;42.826;23.992;2022-10-16T05:58:23;3.53;;;2.90;;
40649;SDS011;26342;42.826;23.992;2022-10-16T06:00:57;5.30;;;4.07;;
40649;SDS011;26342;42.826;23.992;2022-10-16T06:03:25;9.10;;;5.15;;
40649;SDS011;26342;42.826;23.992;2022-10-16T06:05:50;8.75;;;5.75;;
40649;SDS011;26342;42.826;23.992;2022-10-16T06:08:16;5.82;;;4.60;;
40649;SDS011;26342;42.826;23.992;2022-10-16T06:10:44;15.63;;;9.57;;
40649;SDS011;26342;42.826;23.992;2022-10-16T06:13:10;16.00;;;9.15;;
40649;SDS011;26342;42.826;23.992;2022-10-16T06:15:36;9.05;;;7.57;;
40649;SDS011;26342;42.826;23.992;2022-10-16T06:18:04;7.90;;;6.55;;
40649;SDS011;26342;42.826;23.992;2022-10-16T06:20:29;14.45;;;7.05;;
40649;SDS011;26342;42.826;23.992;2022-10-16T06:22:55;8.50;;;4.47;;
40649;SDS011;26342;42.826;23.992;2022-10-16T06:25:20;9.80;;;6.30;;
40649;SDS011;26342;42.826;23.992;2022-10-16T06:27:46;7.47;;;6.50;;
40649;SDS011;26342;42.826;23.992;2022-10-16T06:30:11;6.13;;;4.97;;
40649;SDS011;26342;42.826;23.992;2022-10-16T06:32:36;8.15;;;5.05;;
40649;SDS011;26342;42.826;23.992;2022-10-16T06:35:02;6.55;;;5.10;;
40649;SDS011;26342;42.826;23.992;2022-10-16T06:37:27;12.82;;;7.13;;
40649;SDS011;26342;42.826;23.992;2022-10-16T06:39:53;15.27;;;9.13;;
40649;SDS011;26342;42.826;23.992;2022-10-16T06:42:18;7.45;;;5.75;;
40649;SDS011;26342;42.826;23.992;2022-10-16T06:44:44;4.70;;;3.92;;
40649;SDS011;26342;42.826;23.992;2022-10-16T06:47:09;10.52;;;3.05;;
40649;SDS011;26342;42.826;23.992;2022-10-16T06:49:35;4.28;;;1.77;;
40649;SDS011;26342;42.826;23.992;2022-10-16T06:52:00;8.50;;;3.95;;
40649;SDS011;26342;42.826;23.992;2022-10-16T06:54:26;3.35;;;3.00;;
40649;SDS011;26342;42.826;23.992;2022-10-16T06:56:52;5.10;;;2.65;;
40649;SDS011;26342;42.826;23.992;2022-10-16T06:59:19;2.83;;;2.35;;
40649;SDS011;26342;42.826;23.992;2022-10-16T07:01:45;5.32;;;2.03;;
40649;SDS011;26342;42.826;23.992;2022-10-16T07:04:11;6.15;;;4.32;;
40649;SDS011;26342;42.826;23.992;2022-10-16T07:06:36;3.72;;;2.65;;
40649;SDS011;26342;42.826;23.992;2022-10-16T07:09:03;2.17;;;1.98;;
40649;SDS011;26342;42.826;23.992;2022-10-16T07:11:30;7.45;;;1.95;;
40649;SDS011;26342;42.826;23.992;2022-10-16T07:13:56;2.88;;;2.08;;
40649;SDS011;26342;42.826;23.992;2022-10-16T07:16:31;2.90;;;2.10;;
40649;SDS011;26342;42.826;23.992;2022-10-16T07:18:58;1.65;;;1.13;;
40649;SDS011;26342;42.826;23.992;2022-10-16T07:21:26;3.40;;;2.83;;
40649;SDS011;26342;42.826;23.992;2022-10-16T07:23:54;2.28;;;1.27;;
40649;SDS011;26342;42.826;23.992;2022-10-16T07:26:21;0.68;;;0.63;;
40649;SDS011;26342;42.826;23.992;2022-10-16T07:28:47;2.20;;;0.95;;
40649;SDS011;26342;42.826;23.992;2022-10-16T07:31:13;1.73;;;1.48;;
40649;SDS011;26342;42.826;23.992;2022-10-16T07:33:40;1.77;;;1.38;;
40649;SDS011;26342;42.826;23.992;2022-10-16T07:36:10;1.73;;;1.25;;
40649;SDS011;26342;42.826;23.992;2022-10-16T07:38:36;2.35;;;1.42;;
40649;SDS011;26342;42.826;23.992;2022-10-16T07:41:04;1.52;;;1.13;;
40649;SDS011;26342;42.826;23.992;2022-10-16T07:43:30;1.10;;;0.75;;
40649;SDS011;26342;42.826;23.992;2022-10-16T07:45:56;1.63;;;0.82;;
40649;SDS011;26342;42.826;23.992;2022-10-16T07:48:22;2.22;;;1.50;;
40649;SDS011;26342;42.826;23.992;2022-10-16T07:50:48;3.10;;;1.48;;
40649;SDS011;26342;42.826;23.992;2022-10-16T07:53:14;2.88;;;0.82;;
40649;SDS011;26342;42.826;23.992;2022-10-16T07:55:40;3.58;;;1.45;;
40649;SDS011;26342;42.826;23.992;2022-10-16T07:58:05;1.40;;;1.00;;
40649;SDS011;26342;42.826;23.992;2022-10-16T08:00:31;2.42;;;1.45;;
40649;SDS011;26342;42.826;23.992;2022-10-16T08:02:57;2.40;;;1.60;;
40649;SDS011;26342;42.826;23.992;2022-10-16T08:05:29;1.40;;;1.20;;
40649;SDS011;26342;42.826;23.992;2022-10-16T08:07:56;4.32;;;1.38;;
40649;SDS011;26342;42.826;23.992;2022-10-16T08:10:22;2.92;;;1.98;;
40649;SDS011;26342;42.826;23.992;2022-10-16T08:12:49;2.17;;;0.82;;
40649;SDS011;26342;42.826;23.992;2022-10-16T08:15:15;1.75;;;1.20;;
40649;SDS011;26342;42.826;23.992;2022-10-16T08:17:41;2.30;;;1.80;;
40649;SDS011;26342;42.826;23.992;2022-10-16T08:20:07;0.82;;;0.63;;
40649;SDS011;26342;42.826;23.992;2022-10-16T08:22:33;4.15;;;1.02;;
40649;SDS011;26342;42.826;23.992;2022-10-16T08:24:58;0.55;;;0.55;;
40649;SDS011;26342;42.826;23.992;2022-10-16T08:27:23;0.28;;;0.28;;
40649;SDS011;26342;42.826;23.992;2022-10-16T08:29:49;1.08;;;0.98;;
40649;SDS011;26342;42.826;23.992;2022-10-16T08:32:14;0.32;;;0.32;;
40649;SDS011;26342;42.826;23.992;2022-10-16T08:34:40;0.88;;;0.88;;
40649;SDS011;26342;42.826;23.992;2022-10-16T08:37:05;0.95;;;0.93;;
40649;SDS011;26342;42.826;23.992;2022-10-16T08:39:33;2.05;;;0.63;;
40649;SDS011;26342;42.826;23.992;2022-10-16T08:42:07;0.50;;;0.35;;
40649;SDS011;26342;42.826;23.992;2022-10-16T08:47:20;0.30;;;0.30;;
40649;SDS011;26342;42.826;23.992;2022-10-16T08:50:05;0.65;;;0.47;;
40649;SDS011;26342;42.826;23.992;2022-10-16T08:52:38;0.60;;;0.60;;
40649;SDS011;26342;42.826;23.992;2022-10-16T08:55:08;0.63;;;0.63;;
40649;SDS011;26342;42.826;23.992;2022-10-16T08:57:53;1.25;;;0.43;;
40649;SDS011;26342;42.826;23.992;2022-10-16T09:00:19;0.55;;;0.55;;
40649;SDS011;26342;42.826;23.992;2022-10-16T09:02:47;0.73;;;0.70;;
40649;SDS011;26342;42.826;23.992;2022-10-16T09:05:23;0.77;;;0.77;;
40649;SDS011;26342;42.826;23.992;2022-10-16T09:13:53;0.75;;;0.43;;
40649;SDS011;26342;42.826;23.992;2022-10-16T09:16:24;0.85;;;0.55;;
40649;SDS011;26342;42.826;23.992;2022-10-16T09:18:58;0.55;;;0.47;;
40649;SDS011;26342;42.826;23.992;2022-10-16T09:21:30;0.43;;;0.20;;
40649;SDS011;26342;42.826;23.992;2022-10-16T09:24:07;1.33;;;0.40;;
40649;SDS011;26342;42.826;23.992;2022-10-16T09:26:38;0.20;;;0.20;;
40649;SDS011;26342;42.826;23.992;2022-10-16T09:29:03;0.95;;;0.22;;
40649;SDS011;26342;42.826;23.992;2022-10-16T09:31:29;1.20;;;0.77;;
40649;SDS011;26342;42.826;23.992;2022-10-16T09:33:58;1.13;;;0.93;;
40649;SDS011;26342;42.826;23.992;2022-10-16T09:36:25;0.15;;;0.15;;
40649;SDS011;26342;42.826;23.992;2022-10-16T09:39:06;0.80;;;0.70;;
40649;SDS011;26342;42.826;23.992;2022-10-16T09:41:40;0.55;;;0.47;;
40649;SDS011;26342;42.826;23.992;2022-10-16T09:44:19;1.63;;;1.52;;
40649;SDS011;26342;42.826;23.992;2022-10-16T09:47:00;0.90;;;0.73;;
40649;SDS011;26342;42.826;23.992;2022-10-16T09:49:27;2.83;;;1.25;;
40649;SDS011;26342;42.826;23.992;2022-10-16T09:52:14;0.30;;;0.30;;
40649;SDS011;26342;42.826;23.992;2022-10-16T09:54:48;0.35;;;0.35;;
40649;SDS011;26342;42.826;23.992;2022-10-16T09:57:22;0.30;;;0.30;;
40649;SDS011;26342;42.826;23.992;2022-10-16T09:59:48;0.50;;;0.50;;
40649;SDS011;26342;42.826;23.992;2022-10-16T10:02:16;0.75;;;0.50;;
40649;SDS011;26342;42.826;23.992;2022-10-16T10:04:51;17.17;;;0.93;;
40649;SDS011;26342;42.826;23.992;2022-10-16T10:07:25;0.20;;;0.20;;
40649;SDS011;26342;42.826;23.992;2022-10-16T10:09:53;0.73;;;0.73;;
40649;SDS011;26342;42.826;23.992;2022-10-16T10:12:23;1.10;;;0.50;;
40649;SDS011;26342;42.826;23.992;2022-10-16T10:14:50;0.75;;;0.75;;
40649;SDS011;26342;42.826;23.992;2022-10-16T10:17:21;0.43;;;0.43;;
40649;SDS011;26342;42.826;23.992;2022-10-16T10:19:51;0.57;;;0.47;;
40649;SDS011;26342;42.826;23.992;2022-10-16T10:22:25;2.15;;;1.25;;
40649;SDS011;26342;42.826;23.992;2022-10-16T10:30:39;0.50;;;0.50;;
40649;SDS011;26342;42.826;23.992;2022-10-16T10:33:21;0.60;;;0.60;;
40649;SDS011;26342;42.826;23.992;2022-10-16T10:38:59;0.70;;;0.50;;
40649;SDS011;26342;42.826;23.992;2022-10-16T10:52:16;0.40;;;0.30;;
40649;SDS011;26342;42.826;23.992;2022-10-16T11:00:17;0.30;;;0.30;;
40649;SDS011;26342;42.826;23.992;2022-10-16T11:06:22;0.43;;;0.43;;
40649;SDS011;26342;42.826;23.992;2022-10-16T11:11:58;1.55;;;0.82;;
40649;SDS011;26342;42.826;23.992;2022-10-16T11:17:34;1.00;;;0.60;;
40649;SDS011;26342;42.826;23.992;2022-10-16T11:25:18;0.50;;;0.50;;
40649;SDS011;26342;42.826;23.992;2022-10-16T11:27:52;1.25;;;0.65;;
40649;SDS011;26342;42.826;23.992;2022-10-16T11:30:27;1.50;;;0.50;;
40649;SDS011;26342;42.826;23.992;2022-10-16T11:35:46;1.00;;;0.50;;
40649;SDS011;26342;42.826;23.992;2022-10-16T11:41:00;0.68;;;0.68;;
40649;SDS011;26342;42.826;23.992;2022-10-16T11:43:45;2.25;;;0.88;;
40649;SDS011;26342;42.826;23.992;2022-10-16T11:46:19;0.77;;;0.65;;
40649;SDS011;26342;42.826;23.992;2022-10-16T11:54:10;0.70;;;0.70;;
40649;SDS011;26342;42.826;23.992;2022-10-16T11:56:50;0.85;;;0.68;;
40649;SDS011;26342;42.826;23.992;2022-10-16T12:05:03;0.30;;;0.30;;
40649;SDS011;26342;42.826;23.992;2022-10-16T12:08:16;0.35;;;0.35;;
40649;SDS011;26342;42.826;23.992;2022-10-16T12:10:36;1.27;;;0.85;;
40649;SDS011;26342;42.826;23.992;2022-10-16T12:13:04;1.98;;;0.60;;
40649;SDS011;26342;42.826;23.992;2022-10-16T12:15:50;1.98;;;0.52;;
40649;SDS011;26342;42.826;23.992;2022-10-16T12:18:23;0.98;;;0.82;;
40649;SDS011;26342;42.826;23.992;2022-10-16T12:20:56;0.65;;;0.63;;
40649;SDS011;26342;42.826;23.992;2022-10-16T12:23:30;0.38;;;0.38;;
40649;SDS011;26342;42.826;23.992;2022-10-16T12:25:58;0.20;;;0.20;;
40649;SDS011;26342;42.826;23.992;2022-10-16T12:28:27;1.15;;;1.05;;
40649;SDS011;26342;42.826;23.992;2022-10-16T12:31:05;0.82;;;0.52;;
40649;SDS011;26342;42.826;23.992;2022-10-16T12:33:37;0.28;;;0.28;;
40649;SDS011;26342;42.826;23.992;2022-10-16T12:36:11;0.55;;;0.45;;
40649;SDS011;26342;42.826;23.992;2022-10-16T12:38:53;0.20;;;0.20;;
40649;SDS011;26342;42.826;23.992;2022-10-16T12:41:32;0.47;;;0.40;;
40649;SDS011;26342;42.826;23.992;2022-10-16T12:44:05;0.30;;;0.30;;
40649;SDS011;26342;42.826;23.992;2022-10-16T12:46:46;0.85;;;0.52;;
40649;SDS011;26342;42.826;23.992;2022-10-16T12:51:37;0.20;;;0.20;;
40649;SDS011;26342;42.826;23.992;2022-10-16T13:04:50;5.47;;;3.78;;
40649;SDS011;26342;42.826;23.992;2022-10-16T13:24:22;0.43;;;0.43;;
40649;SDS011;26342;42.826;23.992;2022-10-16T13:29:53;3.42;;;1.30;;
40649;SDS011;26342;42.826;23.992;2022-10-16T13:32:25;1.08;;;0.98;;
40649;SDS011;26342;42.826;23.992;2022-10-16T13:34:51;1.30;;;1.20;;
40649;SDS011;26342;42.826;23.992;2022-10-16T13:37:19;0.75;;;0.65;;
40649;SDS011;26342;42.826;23.992;2022-10-16T13:39:49;1.00;;;0.80;;
40649;SDS011;26342;42.826;23.992;2022-10-16T13:44:54;1.45;;;0.47;;
40649;SDS011;26342;42.826;23.992;2022-10-16T13:52:31;0.30;;;0.20;;
40649;SDS011;26342;42.826;23.992;2022-10-16T13:54:57;0.10;;;0.10;;
40649;SDS011;26342;42.826;23.992;2022-10-16T13:57:23;1.63;;;0.88;;
40649;SDS011;26342;42.826;23.992;2022-10-16T13:59:50;0.35;;;0.32;;
40649;SDS011;26342;42.826;23.992;2022-10-16T14:02:25;0.60;;;0.60;;
40649;SDS011;26342;42.826;23.992;2022-10-16T14:05:03;0.98;;;0.65;;
40649;SDS011;26342;42.826;23.992;2022-10-16T14:07:33;3.85;;;1.13;;
40649;SDS011;26342;42.826;23.992;2022-10-16T14:10:02;0.65;;;0.65;;
40649;SDS011;26342;42.826;23.992;2022-10-16T14:12:30;1.17;;;1.08;;
40649;SDS011;26342;42.826;23.992;2022-10-16T14:14:55;0.20;;;0.20;;
40649;SDS011;26342;42.826;23.992;2022-10-16T14:19:51;6.03;;;3.03;;
40649;SDS011;26342;42.826;23.992;2022-10-16T14:24:57;52.05;;;21.98;;
40649;SDS011;26342;42.826;23.992;2022-10-16T14:27:26;7.32;;;4.65;;
40649;SDS011;26342;42.826;23.992;2022-10-16T14:32:32;19.17;;;9.77;;
40649;SDS011;26342;42.826;23.992;2022-10-16T14:34:57;16.40;;;9.93;;
40649;SDS011;26342;42.826;23.992;2022-10-16T14:37:24;23.02;;;13.35;;
40649;SDS011;26342;42.826;23.992;2022-10-16T14:39:51;16.83;;;11.68;;
40649;SDS011;26342;42.826;23.992;2022-10-16T14:42:19;11.82;;;8.43;;
40649;SDS011;26342;42.826;23.992;2022-10-16T14:44:49;5.93;;;4.82;;
40649;SDS011;26342;42.826;23.992;2022-10-16T14:47:18;8.90;;;5.65;;
40649;SDS011;26342;42.826;23.992;2022-10-16T14:49:49;8.93;;;6.25;;
40649;SDS011;26342;42.826;23.992;2022-10-16T14:52:14;9.45;;;6.25;;
40649;SDS011;26342;42.826;23.992;2022-10-16T14:54:40;12.52;;;7.70;;
40649;SDS011;26342;42.826;23.992;2022-10-16T14:57:06;4.70;;;4.03;;
40649;SDS011;26342;42.826;23.992;2022-10-16T14:59:42;13.50;;;4.90;;
40649;SDS011;26342;42.826;23.992;2022-10-16T15:02:22;5.32;;;3.25;;
40649;SDS011;26342;42.826;23.992;2022-10-16T15:04:52;8.27;;;4.78;;
40649;SDS011;26342;42.826;23.992;2022-10-16T15:07:18;2.17;;;1.35;;
40649;SDS011;26342;42.826;23.992;2022-10-16T15:09:43;11.38;;;6.22;;
40649;SDS011;26342;42.826;23.992;2022-10-16T15:12:08;3.85;;;2.90;;
40649;SDS011;26342;42.826;23.992;2022-10-16T15:14:34;1.50;;;1.40;;
40649;SDS011;26342;42.826;23.992;2022-10-16T15:16:59;2.15;;;1.50;;
40649;SDS011;26342;42.826;23.992;2022-10-16T15:19:25;0.90;;;0.82;;
40649;SDS011;26342;42.826;23.992;2022-10-16T15:21:50;1.23;;;1.13;;
40649;SDS011;26342;42.826;23.992;2022-10-16T15:24:17;3.28;;;1.63;;
40649;SDS011;26342;42.826;23.992;2022-10-16T15:26:43;1.60;;;1.17;;
40649;SDS011;26342;42.826;23.992;2022-10-16T15:29:08;0.90;;;0.52;;
40649;SDS011;26342;42.826;23.992;2022-10-16T15:31:34;0.75;;;0.65;;
40649;SDS011;26342;42.826;23.992;2022-10-16T15:34:00;0.98;;;0.60;;
40649;SDS011;26342;42.826;23.992;2022-10-16T15:36:33;1.65;;;0.60;;
40649;SDS011;26342;42.826;23.992;2022-10-16T15:39:02;0.35;;;0.35;;
40649;SDS011;26342;42.826;23.992;2022-10-16T15:41:37;0.50;;;0.50;;
40649;SDS011;26342;42.826;23.992;2022-10-16T15:44:02;0.35;;;0.35;;
40649;SDS011;26342;42.826;23.992;2022-10-16T15:46:28;3.35;;;2.03;;
40649;SDS011;26342;42.826;23.992;2022-10-16T15:48:56;0.88;;;0.70;;
40649;SDS011;26342;42.826;23.992;2022-10-16T15:51:23;0.77;;;0.65;;
40649;SDS011;26342;42.826;23.992;2022-10-16T15:53:49;0.68;;;0.50;;
40649;SDS011;26342;42.826;23.992;2022-10-16T15:56:16;1.35;;;0.63;;
40649;SDS011;26342;42.826;23.992;2022-10-16T15:58:42;1.23;;;0.82;;
40649;SDS011;26342;42.826;23.992;2022-10-16T16:01:08;2.42;;;1.88;;
40649;SDS011;26342;42.826;23.992;2022-10-16T16:03:35;4.47;;;2.45;;
40649;SDS011;26342;42.826;23.992;2022-10-16T16:06:09;3.05;;;1.92;;
40649;SDS011;26342;42.826;23.992;2022-10-16T16:08:36;4.82;;;2.00;;
40649;SDS011;26342;42.826;23.992;2022-10-16T16:11:05;1.98;;;1.45;;
40649;SDS011;26342;42.826;23.992;2022-10-16T16:13:33;2.67;;;1.60;;
40649;SDS011;26342;42.826;23.992;2022-10-16T16:15:59;7.50;;;2.90;;
40649;SDS011;26342;42.826;23.992;2022-10-16T16:18:24;1.63;;;1.05;;
40649;SDS011;26342;42.826;23.992;2022-10-16T16:20:50;2.20;;;0.93;;
40649;SDS011;26342;42.826;23.992;2022-10-16T16:23:16;1.17;;;0.90;;
40649;SDS011;26342;42.826;23.992;2022-10-16T16:25:42;1.65;;;0.85;;
40649;SDS011;26342;42.826;23.992;2022-10-16T16:28:08;2.38;;;1.40;;
40649;SDS011;26342;42.826;23.992;2022-10-16T16:30:36;3.88;;;2.50;;
40649;SDS011;26342;42.826;23.992;2022-10-16T16:33:02;4.68;;;2.20;;
40649;SDS011;26342;42.826;23.992;2022-10-16T16:35:27;3.40;;;1.52;;
40649;SDS011;26342;42.826;23.992;2022-10-16T16:37:53;7.70;;;3.40;;
40649;SDS011;26342;42.826;23.992;2022-10-16T16:40:18;7.28;;;2.85;;
40649;SDS011;26342;42.826;23.992;2022-10-16T16:42:44;4.55;;;3.15;;
40649;SDS011;26342;42.826;23.992;2022-10-16T16:45:09;2.97;;;2.22;;
40649;SDS011;26342;42.826;23.992;2022-10-16T16:47:34;2.40;;;1.65;;
40649;SDS011;26342;42.826;23.992;2022-10-16T16:50:00;3.67;;;2.25;;
40649;SDS011;26342;42.826;23.992;2022-10-16T16:52:29;5.40;;;2.67;;
40649;SDS011;26342;42.826;23.992;2022-10-16T16:54:55;5.18;;;2.58;;